createdAt,value
2018-05-15T00:01:41.024Z,17.48
2018-05-15T00:04:08.589Z,17.50
2018-05-15T00:06:36.151Z,17.50
2018-05-15T00:09:03.786Z,17.41
2018-05-15T00:11:31.384Z,17.42
2018-05-15T00:13:58.916Z,17.37
2018-05-15T00:16:26.464Z,17.27
2018-05-15T00:18:54.022Z,17.01
2018-05-15T00:21:21.562Z,17.13
2018-05-15T00:23:49.111Z,17.11
2018-05-15T00:26:16.671Z,17.14
2018-05-15T00:28:44.283Z,17.22
2018-05-15T00:31:11.812Z,17.09
2018-05-15T00:33:39.364Z,17.12
2018-05-15T00:36:06.914Z,17.07
2018-05-15T00:38:34.441Z,17.06
2018-05-15T00:41:01.969Z,17.05
2018-05-15T00:43:29.519Z,17.00
2018-05-15T00:45:57.109Z,16.91
2018-05-15T00:48:24.677Z,16.99
2018-05-15T00:50:52.235Z,17.01
2018-05-15T00:53:19.760Z,16.97
2018-05-15T00:55:47.310Z,16.92
2018-05-15T00:58:14.830Z,16.98
2018-05-15T01:00:42.421Z,16.93
2018-05-15T01:03:10.026Z,17.07
2018-05-15T01:05:37.588Z,17.21
2018-05-15T01:08:05.151Z,17.28
2018-05-15T01:10:32.669Z,17.32
2018-05-15T01:13:00.303Z,17.29
2018-05-15T01:15:27.865Z,17.30
2018-05-15T01:17:55.384Z,17.35
2018-05-15T01:20:23.542Z,17.25
2018-05-15T01:22:51.066Z,17.30
2018-05-15T01:25:18.708Z,17.40
2018-05-15T01:27:46.235Z,17.32
2018-05-15T01:30:13.783Z,17.47
2018-05-15T01:32:41.357Z,17.57
2018-05-15T01:35:08.859Z,17.60
2018-05-15T01:37:36.374Z,17.57
2018-05-15T01:40:03.933Z,17.55
2018-05-15T01:42:31.460Z,17.66
2018-05-15T01:44:58.999Z,17.64
2018-05-15T01:47:26.502Z,17.55
2018-05-15T01:49:54.019Z,17.59
2018-05-15T01:52:21.567Z,17.50
2018-05-15T01:54:49.084Z,17.46
2018-05-15T01:57:16.603Z,17.40
2018-05-15T01:59:44.129Z,17.31
2018-05-15T02:02:11.656Z,17.34
2018-05-15T02:04:39.164Z,17.24
2018-05-15T02:07:06.760Z,17.23
2018-05-15T02:09:34.273Z,17.22
2018-05-15T02:12:01.792Z,17.19
2018-05-15T02:14:29.335Z,17.22
2018-05-15T02:16:56.861Z,17.22
2018-05-15T02:19:24.397Z,17.05
2018-05-15T02:21:51.919Z,17.11
2018-05-15T02:24:19.433Z,17.11
2018-05-15T02:26:46.962Z,17.25
2018-05-15T02:29:14.474Z,17.23
2018-05-15T02:31:42.015Z,17.21
2018-05-15T02:34:09.555Z,17.24
2018-05-15T02:36:37.095Z,17.31
2018-05-15T02:39:04.620Z,17.31
2018-05-15T02:41:32.131Z,17.30
2018-05-15T02:43:59.644Z,17.20
2018-05-15T02:46:27.164Z,17.26
2018-05-15T02:48:54.703Z,17.17
2018-05-15T02:51:22.218Z,17.06
2018-05-15T02:53:49.726Z,17.14
2018-05-15T02:56:17.262Z,17.24
2018-05-15T02:58:44.796Z,17.25
2018-05-15T03:01:12.324Z,17.16
2018-05-15T03:03:39.845Z,16.91
2018-05-15T03:06:07.367Z,17.02
2018-05-15T03:08:34.885Z,17.03
2018-05-15T03:11:02.627Z,17.07
2018-05-15T03:13:30.460Z,16.86
2018-05-15T03:15:58.116Z,16.79
2018-05-15T03:18:26.004Z,16.89
2018-05-15T03:20:53.761Z,16.74
2018-05-15T03:23:21.272Z,16.83
2018-05-15T03:25:48.776Z,16.83
2018-05-15T03:28:16.372Z,17.00
2018-05-15T03:30:43.861Z,17.09
2018-05-15T03:33:11.397Z,17.25
2018-05-15T03:35:39.183Z,17.32
2018-05-15T03:38:06.702Z,17.35
2018-05-15T03:40:34.280Z,17.42
2018-05-15T03:43:01.839Z,17.61
2018-05-15T03:45:29.353Z,17.69
2018-05-15T03:47:56.894Z,17.67
2018-05-15T03:50:24.439Z,17.53
2018-05-15T03:52:51.955Z,17.42
2018-05-15T03:55:19.472Z,17.32
2018-05-15T03:57:46.979Z,17.40
2018-05-15T04:00:26.281Z,17.40
2018-05-15T04:03:05.467Z,17.31
2018-05-15T04:05:44.744Z,17.24
2018-05-15T04:08:14.080Z,17.50
2018-05-15T04:10:41.635Z,17.79
2018-05-15T04:13:09.182Z,18.02
2018-05-15T04:15:37.013Z,17.96
2018-05-15T04:18:04.539Z,17.68
2018-05-15T04:20:32.109Z,17.84
2018-05-15T04:22:59.636Z,17.80
2018-05-15T04:25:27.160Z,17.97
2018-05-15T04:27:54.670Z,17.96
2018-05-15T04:30:22.216Z,17.91
2018-05-15T04:32:49.763Z,17.75
2018-05-15T04:35:17.374Z,17.82
2018-05-15T04:37:44.864Z,17.67
2018-05-15T04:40:12.431Z,17.44
2018-05-15T04:42:39.963Z,17.37
2018-05-15T04:45:07.515Z,17.56
2018-05-15T04:47:35.045Z,17.36
2018-05-15T04:50:02.558Z,17.44
2018-05-15T04:52:30.067Z,17.57
2018-05-15T04:54:57.574Z,17.76
2018-05-15T04:57:25.079Z,17.76
2018-05-15T04:59:52.588Z,17.96
2018-05-15T05:02:20.309Z,18.30
2018-05-15T05:04:47.818Z,18.57
2018-05-15T05:07:15.393Z,19.03
2018-05-15T05:09:42.999Z,19.47
2018-05-15T05:12:10.520Z,20.53
2018-05-15T05:14:38.034Z,20.90
2018-05-15T05:17:05.549Z,20.17
2018-05-15T05:19:33.107Z,19.55
2018-05-15T05:22:00.627Z,19.22
2018-05-15T05:24:28.142Z,18.90
2018-05-15T05:26:55.655Z,18.84
2018-05-15T05:29:23.195Z,18.78
2018-05-15T05:31:50.718Z,18.81
2018-05-15T05:34:18.227Z,18.56
2018-05-15T05:36:45.744Z,18.73
2018-05-15T05:39:13.286Z,18.83
2018-05-15T05:41:40.841Z,18.33
2018-05-15T05:44:08.350Z,18.46
2018-05-15T05:46:35.931Z,18.70
2018-05-15T05:49:03.448Z,19.07
2018-05-15T05:51:39.258Z,20.66
2018-05-15T05:54:06.772Z,22.00
2018-05-15T05:56:34.305Z,22.91
2018-05-15T05:59:01.882Z,23.82
2018-05-15T06:01:29.396Z,24.37
2018-05-15T06:03:56.928Z,24.80
2018-05-15T06:06:24.451Z,25.23
2018-05-15T06:08:51.960Z,24.79
2018-05-15T06:11:19.484Z,25.96
2018-05-15T06:13:47.008Z,25.84
2018-05-15T06:16:14.523Z,25.92
2018-05-15T06:18:42.038Z,26.08
2018-05-15T06:21:09.684Z,26.22
2018-05-15T06:23:37.202Z,26.35
2018-05-15T06:26:04.752Z,26.08
2018-05-15T06:28:32.333Z,23.79
2018-05-15T06:30:59.903Z,23.79
2018-05-15T06:33:27.416Z,24.98
2018-05-15T06:35:54.966Z,25.49
2018-05-15T06:38:22.484Z,26.30
2018-05-15T06:40:50.057Z,26.32
2018-05-15T06:43:17.582Z,25.88
2018-05-15T06:45:45.112Z,24.92
2018-05-15T06:48:12.696Z,25.43
2018-05-15T06:50:40.520Z,25.24
2018-05-15T06:53:08.052Z,25.24
2018-05-15T06:55:35.604Z,24.33
2018-05-15T06:58:03.127Z,24.85
2018-05-15T07:00:30.703Z,26.06
2018-05-15T07:02:58.222Z,26.46
2018-05-15T07:05:25.734Z,26.60
2018-05-15T07:07:53.248Z,26.63
2018-05-15T07:10:20.769Z,26.03
2018-05-15T07:12:48.288Z,26.58
2018-05-15T07:15:15.868Z,25.92
2018-05-15T07:17:43.375Z,25.37
2018-05-15T07:20:10.920Z,26.37
2018-05-15T07:22:38.446Z,26.11
2018-05-15T07:25:05.977Z,26.45
2018-05-15T07:27:33.506Z,26.89
2018-05-15T07:30:01.018Z,27.55
2018-05-15T07:32:28.580Z,27.53
2018-05-15T07:34:56.103Z,26.81
2018-05-15T07:37:23.679Z,27.14
2018-05-15T07:39:51.230Z,27.25
2018-05-15T07:42:18.775Z,26.00
2018-05-15T07:44:46.330Z,25.61
2018-05-15T07:47:13.883Z,26.03
2018-05-15T07:49:41.444Z,27.01
2018-05-15T07:52:08.967Z,27.23
2018-05-15T07:54:36.520Z,28.09
2018-05-15T07:57:04.061Z,27.33
2018-05-15T07:59:31.593Z,26.97
2018-05-15T08:01:59.160Z,26.91
2018-05-15T08:04:26.656Z,26.76
2018-05-15T08:06:54.158Z,26.80
2018-05-15T08:09:21.685Z,27.01
2018-05-15T08:11:49.203Z,27.66
2018-05-15T08:14:16.707Z,28.05
2018-05-15T08:16:44.215Z,28.60
2018-05-15T08:19:11.736Z,27.72
2018-05-15T08:21:39.286Z,26.10
2018-05-15T08:24:06.804Z,26.58
2018-05-15T08:26:34.360Z,27.90
2018-05-15T08:29:01.957Z,27.09
2018-05-15T08:31:29.508Z,27.93
2018-05-15T08:33:57.032Z,27.64
2018-05-15T08:36:24.556Z,28.11
2018-05-15T08:38:52.103Z,27.46
2018-05-15T08:41:19.744Z,28.10
2018-05-15T08:43:47.331Z,28.42
2018-05-15T08:46:14.858Z,27.86
2018-05-15T08:48:42.388Z,28.72
2018-05-15T08:51:10.535Z,28.55
2018-05-15T08:53:38.058Z,29.16
2018-05-15T08:56:05.588Z,29.43
2018-05-15T08:58:33.108Z,29.57
2018-05-15T09:01:00.654Z,30.04
2018-05-15T09:03:28.204Z,30.49
2018-05-15T09:05:55.716Z,27.66
2018-05-15T09:08:23.253Z,25.40
2018-05-15T09:10:50.796Z,26.43
2018-05-15T09:13:18.308Z,28.25
2018-05-15T09:15:45.824Z,28.14
2018-05-15T09:18:13.389Z,28.42
2018-05-15T09:20:41.121Z,28.38
2018-05-15T09:23:08.631Z,26.14
2018-05-15T09:25:36.135Z,26.16
2018-05-15T09:28:03.657Z,26.81
2018-05-15T09:30:31.224Z,25.86
2018-05-15T09:32:58.735Z,26.26
2018-05-15T09:35:26.255Z,27.42
2018-05-15T09:37:53.782Z,26.83
2018-05-15T09:40:21.293Z,25.96
2018-05-15T09:42:48.803Z,25.47
2018-05-15T09:45:16.351Z,26.63
2018-05-15T09:47:43.883Z,26.73
2018-05-15T09:50:11.418Z,26.07
2018-05-15T09:52:39.000Z,26.70
2018-05-15T09:55:06.503Z,27.42
2018-05-15T09:57:34.776Z,27.58
2018-05-15T10:00:04.182Z,26.08
2018-05-15T10:02:31.727Z,26.02
2018-05-15T10:04:59.246Z,28.80
2018-05-15T10:07:26.766Z,27.71
2018-05-15T10:09:54.283Z,28.28
2018-05-15T10:12:21.815Z,29.04
2018-05-15T10:14:49.363Z,27.91
2018-05-15T10:17:16.893Z,28.81
2018-05-15T10:19:44.404Z,28.67
2018-05-15T10:22:11.963Z,26.88
2018-05-15T10:24:39.498Z,28.53
2018-05-15T10:27:07.012Z,28.60
2018-05-15T10:29:34.520Z,29.30
2018-05-15T10:32:02.067Z,30.32
2018-05-15T10:34:29.589Z,29.80
2018-05-15T10:36:57.099Z,28.31
2018-05-15T10:39:24.679Z,28.70
2018-05-15T10:41:52.214Z,29.73
2018-05-15T10:44:19.722Z,29.74
2018-05-15T10:46:47.227Z,29.24
2018-05-15T10:49:14.754Z,28.46
2018-05-15T10:51:42.263Z,29.53
2018-05-15T10:54:09.770Z,28.99
2018-05-15T10:56:37.279Z,27.87
2018-05-15T10:59:04.849Z,26.90
2018-05-15T11:01:32.355Z,26.43
2018-05-15T11:03:59.881Z,26.65
2018-05-15T11:06:28.424Z,25.82
2018-05-15T11:08:55.940Z,26.45
2018-05-15T11:11:23.468Z,26.62
2018-05-15T11:13:51.006Z,27.11
2018-05-15T11:16:18.520Z,26.77
2018-05-15T11:18:46.090Z,26.33
2018-05-15T11:21:25.473Z,25.92
2018-05-15T11:26:59.142Z,26.34
2018-05-15T11:29:26.674Z,26.82
2018-05-15T11:31:54.185Z,26.50
2018-05-15T11:34:21.700Z,26.87
2018-05-15T11:36:50.024Z,26.91
2018-05-15T11:39:17.544Z,29.01
2018-05-15T11:41:45.115Z,28.61
2018-05-15T11:44:13.968Z,28.84
2018-05-15T11:46:44.124Z,30.72
2018-05-15T11:49:12.701Z,32.23
2018-05-15T11:51:39.690Z,31.30
2018-05-15T11:54:06.789Z,31.65
2018-05-15T11:56:34.417Z,31.58
2018-05-15T11:59:01.844Z,33.38
2018-05-15T12:01:29.376Z,33.19
2018-05-15T12:03:56.999Z,32.63
2018-05-15T12:06:24.512Z,33.17
2018-05-15T12:08:52.029Z,32.85
2018-05-15T12:11:19.543Z,32.97
2018-05-15T12:13:47.081Z,32.32
2018-05-15T12:16:14.652Z,32.38
2018-05-15T12:18:42.265Z,32.89
2018-05-15T12:21:09.914Z,33.05
2018-05-15T12:23:37.362Z,32.96
2018-05-15T12:26:04.866Z,31.39
2018-05-15T12:28:32.369Z,29.74
2018-05-15T12:30:59.875Z,28.72
2018-05-15T12:33:27.377Z,28.43
2018-05-15T12:35:54.971Z,27.93
2018-05-15T12:38:22.423Z,27.76
2018-05-15T12:40:49.914Z,27.55
2018-05-15T12:43:17.413Z,27.48
2018-05-15T12:45:44.918Z,27.92
2018-05-15T12:48:12.430Z,27.71
2018-05-15T12:50:39.932Z,28.07
2018-05-15T12:53:07.452Z,28.10
2018-05-15T12:55:34.972Z,28.14
2018-05-15T12:58:02.508Z,28.21
2018-05-15T13:00:30.013Z,27.69
2018-05-15T13:02:57.523Z,27.42
2018-05-15T13:05:25.026Z,27.44
2018-05-15T13:07:52.557Z,28.34
2018-05-15T13:10:20.056Z,28.98
2018-05-15T13:12:47.634Z,29.05
2018-05-15T13:15:15.155Z,29.80
2018-05-15T13:17:42.702Z,29.37
2018-05-15T13:20:10.885Z,29.48
2018-05-15T13:22:38.432Z,30.24
2018-05-15T13:25:05.974Z,30.44
2018-05-15T13:27:33.630Z,29.67
2018-05-15T13:30:01.191Z,28.02
2018-05-15T13:32:28.688Z,27.62
2018-05-15T13:34:56.207Z,28.55
2018-05-15T13:37:23.719Z,28.21
2018-05-15T13:39:51.226Z,27.81
2018-05-15T13:42:18.738Z,27.86
2018-05-15T13:44:46.253Z,27.66
2018-05-15T13:47:13.761Z,27.72
2018-05-15T13:49:41.278Z,27.55
2018-05-15T13:52:09.550Z,27.53
2018-05-15T13:54:37.110Z,27.65
2018-05-15T13:57:04.629Z,27.46
2018-05-15T13:59:32.140Z,27.06
2018-05-15T14:01:59.650Z,27.22
2018-05-15T14:04:27.170Z,27.27
2018-05-15T14:06:54.684Z,26.99
2018-05-15T14:09:22.195Z,26.89
2018-05-15T14:11:49.691Z,26.97
2018-05-15T14:14:17.202Z,26.37
2018-05-15T14:16:44.708Z,26.13
2018-05-15T14:19:12.250Z,25.59
2018-05-15T14:21:39.768Z,25.29
2018-05-15T14:24:07.320Z,24.67
2018-05-15T14:26:34.819Z,24.02
2018-05-15T14:29:02.644Z,24.16
2018-05-15T14:31:30.253Z,23.94
2018-05-15T14:33:57.712Z,23.71
2018-05-15T14:36:25.257Z,23.31
2018-05-15T14:38:52.762Z,22.28
2018-05-15T14:44:15.688Z,19.98
2018-05-15T14:46:43.234Z,19.45
2018-05-15T14:49:10.753Z,19.22
2018-05-15T14:51:38.259Z,19.28
2018-05-15T14:54:07.551Z,19.21
2018-05-15T14:56:35.062Z,19.10
2018-05-15T14:59:02.611Z,19.04
2018-05-15T15:01:30.838Z,19.24
2018-05-15T15:03:58.374Z,19.30
2018-05-15T15:06:25.893Z,19.45
2018-05-15T15:08:53.463Z,19.57
2018-05-15T15:11:20.968Z,19.49
2018-05-15T15:13:48.477Z,19.56
2018-05-15T15:16:16.040Z,19.70
2018-05-15T15:18:43.603Z,19.76
2018-05-15T15:21:11.247Z,19.66
2018-05-15T15:23:38.800Z,19.55
2018-05-15T15:26:06.387Z,19.53
2018-05-15T15:28:33.905Z,18.79
2018-05-15T15:31:01.427Z,18.72
2018-05-15T15:33:28.927Z,18.76
2018-05-15T15:35:56.442Z,18.59
2018-05-15T15:38:23.972Z,18.59
2018-05-15T15:40:51.489Z,18.59
2018-05-15T15:43:19.005Z,18.56
2018-05-15T15:45:46.516Z,18.48
2018-05-15T15:48:14.039Z,18.27
2018-05-15T15:50:41.597Z,18.20
2018-05-15T15:53:09.104Z,18.18
2018-05-15T15:55:36.636Z,18.16
2018-05-15T15:58:04.201Z,18.23
2018-05-15T16:00:31.754Z,18.30
2018-05-15T16:02:59.254Z,18.37
2018-05-15T16:05:27.511Z,18.51
2018-05-15T16:07:55.119Z,18.62
2018-05-15T16:10:22.729Z,18.67
2018-05-15T16:12:50.405Z,18.85
2018-05-15T16:15:17.930Z,19.03
2018-05-15T16:17:45.447Z,19.16
2018-05-15T16:20:13.008Z,19.25
2018-05-15T16:22:40.568Z,19.29
2018-05-15T16:25:08.101Z,19.29
2018-05-15T16:27:35.731Z,19.16
2018-05-15T16:30:04.501Z,19.26
2018-05-15T16:32:32.012Z,19.11
2018-05-15T16:34:59.536Z,18.95
2018-05-15T16:37:27.083Z,18.90
2018-05-15T16:39:54.602Z,18.90
2018-05-15T16:42:22.119Z,18.84
2018-05-15T16:44:49.627Z,18.80
2018-05-15T16:47:17.140Z,18.62
2018-05-15T16:49:44.693Z,18.57
2018-05-15T16:52:12.199Z,18.70
2018-05-15T16:54:39.747Z,18.71
2018-05-15T16:57:07.306Z,18.70
2018-05-15T16:59:34.840Z,18.69
2018-05-15T17:02:02.361Z,18.57
2018-05-15T17:04:29.863Z,18.57
2018-05-15T17:06:57.385Z,18.66
2018-05-15T17:09:25.765Z,18.72
2018-05-15T17:11:53.272Z,18.70
2018-05-15T17:14:20.781Z,18.82
2018-05-15T17:16:48.332Z,18.84
2018-05-15T17:19:15.903Z,18.53
2018-05-15T17:21:43.431Z,18.66
2018-05-15T17:24:10.945Z,18.87
2018-05-15T17:26:38.472Z,18.95
2018-05-15T17:29:05.984Z,18.86
2018-05-15T17:31:33.604Z,18.85
2018-05-15T17:34:01.022Z,18.83
2018-05-15T17:36:28.529Z,18.85
2018-05-15T17:38:56.032Z,18.71
2018-05-15T17:41:23.567Z,18.72
2018-05-15T17:43:51.076Z,18.82
2018-05-15T17:46:18.596Z,18.74
2018-05-15T17:48:46.133Z,18.59
2018-05-15T17:51:13.626Z,18.55
2018-05-15T17:53:41.131Z,18.64
2018-05-15T17:56:08.641Z,18.73
2018-05-15T17:58:36.212Z,18.62
2018-05-15T18:01:03.719Z,18.83
2018-05-15T18:03:31.251Z,18.88
2018-05-15T18:05:58.780Z,18.92
2018-05-15T18:08:26.352Z,18.90
2018-05-15T18:10:53.834Z,18.91
2018-05-15T18:13:21.408Z,18.91
2018-05-15T18:15:48.921Z,18.85
2018-05-15T18:18:16.436Z,18.79
2018-05-15T18:20:43.949Z,18.79
2018-05-15T18:23:11.472Z,18.83
2018-05-15T18:25:38.976Z,18.97
2018-05-15T18:28:06.470Z,19.12
2018-05-15T18:30:33.976Z,18.93
2018-05-15T18:33:01.547Z,18.85
2018-05-15T18:35:29.036Z,18.92
2018-05-15T18:37:56.546Z,19.05
2018-05-15T18:40:24.048Z,19.13
2018-05-15T18:42:51.588Z,19.25
2018-05-15T18:45:19.184Z,19.30
2018-05-15T18:47:46.689Z,19.28
2018-05-15T18:50:14.210Z,19.24
2018-05-15T18:52:41.728Z,19.18
2018-05-15T18:55:09.311Z,19.19
2018-05-15T18:57:36.861Z,19.36
2018-05-15T19:00:05.183Z,19.37
2018-05-15T19:02:32.701Z,19.04
2018-05-15T19:05:00.207Z,18.73
2018-05-15T19:07:27.706Z,18.68
2018-05-15T19:09:55.215Z,18.61
2018-05-15T19:12:22.730Z,18.57
2018-05-15T19:14:50.317Z,18.62
2018-05-15T19:17:17.832Z,18.52
2018-05-15T19:19:50.297Z,18.26
2018-05-15T19:22:21.748Z,18.20
2018-05-15T19:24:49.312Z,18.05
2018-05-15T19:27:16.904Z,17.56
2018-05-15T19:29:44.404Z,17.57
2018-05-15T19:32:17.694Z,17.50
2018-05-15T19:34:50.636Z,17.41
2018-05-15T19:37:18.959Z,17.31
2018-05-15T19:39:46.553Z,17.33
2018-05-15T19:42:14.054Z,17.12
2018-05-15T19:44:41.595Z,17.15
2018-05-15T19:47:09.109Z,17.17
2018-05-15T19:49:36.625Z,17.16
2018-05-15T19:52:04.161Z,17.12
2018-05-15T19:54:31.668Z,17.04
2018-05-15T19:56:59.189Z,17.03
2018-05-15T19:59:27.805Z,17.08
2018-05-15T20:01:55.466Z,17.11
2018-05-15T20:04:22.967Z,17.13
2018-05-15T20:06:50.763Z,17.05
2018-05-15T20:09:18.487Z,17.07
2018-05-15T20:11:46.023Z,16.93
2018-05-15T20:14:13.550Z,16.87
2018-05-15T20:16:41.336Z,16.90
2018-05-15T20:19:09.354Z,16.84
2018-05-15T20:21:36.872Z,16.80
2018-05-15T20:24:04.396Z,16.78
2018-05-15T20:26:31.894Z,16.79
2018-05-15T20:28:59.458Z,16.81
2018-05-15T20:31:26.931Z,16.82
2018-05-15T20:33:54.433Z,16.78
2018-05-15T20:36:21.930Z,16.77
2018-05-15T20:38:49.443Z,16.77
2018-05-15T20:41:17.007Z,16.78
2018-05-15T20:43:44.743Z,16.73
2018-05-15T20:46:12.248Z,16.78
2018-05-15T20:48:40.869Z,16.71
2018-05-15T20:51:08.419Z,16.67
2018-05-15T20:53:35.919Z,16.64
2018-05-15T20:56:03.424Z,16.70
2018-05-15T20:58:31.022Z,16.79
2018-05-15T21:00:58.483Z,16.66
2018-05-15T21:03:26.103Z,16.57
2018-05-15T21:05:53.662Z,16.41
2018-05-15T21:08:21.230Z,16.42
2018-05-15T21:10:48.731Z,16.33
2018-05-15T21:13:16.555Z,16.38
2018-05-15T21:15:44.981Z,16.37
2018-05-15T21:18:12.614Z,16.46
2018-05-15T21:20:40.127Z,16.48
2018-05-15T21:23:07.683Z,16.51
2018-05-15T21:25:35.292Z,16.71
2018-05-15T21:28:02.800Z,16.68
2018-05-15T21:30:30.330Z,16.65
2018-05-15T21:32:57.836Z,16.78
2018-05-15T21:35:25.376Z,16.63
2018-05-15T21:37:52.882Z,16.47
2018-05-15T21:40:20.638Z,16.48
2018-05-15T21:42:48.153Z,16.46
2018-05-15T21:45:15.673Z,16.38
2018-05-15T21:47:43.473Z,16.13
2018-05-15T21:50:11.340Z,16.19
2018-05-15T21:52:39.017Z,16.38
2018-05-15T21:55:06.471Z,16.39
2018-05-15T21:57:33.980Z,16.29
2018-05-15T22:00:01.512Z,16.31
2018-05-15T22:02:29.063Z,16.08
2018-05-15T22:04:56.583Z,15.65
2018-05-15T22:07:24.096Z,15.82
2018-05-15T22:09:52.028Z,16.09
2018-05-15T22:12:31.568Z,16.04
2018-05-15T22:15:10.652Z,16.03
2018-05-15T22:17:50.036Z,16.09
2018-05-15T22:20:29.493Z,16.01
2018-05-15T22:22:56.475Z,15.93
2018-05-15T22:25:23.983Z,15.98
2018-05-15T22:27:51.505Z,15.96
2018-05-15T22:30:19.032Z,15.87
2018-05-15T22:32:46.616Z,15.88
2018-05-15T22:35:14.123Z,16.02
2018-05-15T22:37:41.684Z,16.02
2018-05-15T22:40:09.221Z,16.12
2018-05-15T22:42:36.728Z,16.03
2018-05-15T22:45:04.565Z,15.99
2018-05-15T22:47:32.076Z,16.08
2018-05-15T22:49:59.801Z,16.07
2018-05-15T22:52:27.324Z,16.19
2018-05-15T22:54:54.852Z,16.18
2018-05-15T22:57:22.593Z,16.19
2018-05-15T22:59:50.109Z,16.22
2018-05-15T23:02:17.609Z,16.26
2018-05-15T23:04:45.112Z,16.19
2018-05-15T23:07:13.320Z,16.19
2018-05-15T23:09:40.822Z,16.15
2018-05-15T23:12:08.320Z,16.20
2018-05-15T23:14:35.839Z,16.22
2018-05-15T23:17:03.576Z,16.21
2018-05-15T23:19:31.375Z,16.31
2018-05-15T23:21:59.281Z,16.25
2018-05-15T23:24:27.060Z,16.30
2018-05-15T23:26:54.573Z,16.57
2018-05-15T23:29:22.166Z,16.55
2018-05-15T23:31:49.600Z,16.52
2018-05-15T23:34:17.335Z,16.45
2018-05-15T23:36:44.863Z,16.48
2018-05-15T23:39:12.415Z,16.59
2018-05-15T23:41:40.661Z,16.40
2018-05-15T23:44:08.178Z,16.47
2018-05-15T23:46:35.723Z,16.75
2018-05-15T23:49:03.559Z,16.57
2018-05-15T23:51:31.335Z,16.44
2018-05-15T23:53:59.127Z,16.35
2018-05-15T23:56:27.263Z,16.10
2018-05-15T23:58:54.772Z,16.17
